Time;durP1;ratioP1;P1;durP2;ratioP2;P2;SDS_P1;SDS_P2;PMS_P1;PMS_P2;Temp;Humidity;BMP_temperature;BMP_pressure;BME280_temperature;BME280_humidity;BME280_pressure;Samples;Min_cycle;Max_cycle;Signal;HPM_P1;HPM_P2
2021/12/31 00:00:16;;;;;;;1.25;0.80;;;13.80;99.90;;;;;;1974136;72;21063;-75
2021/12/31 00:02:43;;;;;;;1.45;1.02;;;13.80;99.90;;;;;;1971833;72;21180;-75
2021/12/31 00:05:09;;;;;;;2.30;0.95;;;13.70;99.90;;;;;;1968256;72;21023;-74
2021/12/31 00:07:35;;;;;;;3.75;0.70;;;13.70;99.90;;;;;;1965837;71;21135;-74
2021/12/31 00:10:01;;;;;;;7.47;0.65;;;13.60;99.90;;;;;;1957163;72;21077;-75
2021/12/31 00:12:27;;;;;;;1.00;0.70;;;13.70;99.90;;;;;;1968325;72;21077;-74
2021/12/31 00:14:54;;;;;;;1.57;0.70;;;13.60;99.90;;;;;;1966589;72;21057;-75
2021/12/31 00:17:20;;;;;;;1.25;0.55;;;13.70;99.90;;;;;;1962743;72;21469;-75
2021/12/31 00:19:47;;;;;;;1.00;0.70;;;13.70;99.90;;;;;;1965109;72;21942;-74
2021/12/31 00:24:47;;;;;;;1.07;0.70;;;13.70;99.90;;;;;;1940149;72;21104;-74
2021/12/31 00:27:13;;;;;;;1.25;0.60;;;13.70;99.90;;;;;;1972329;71;21132;-74
2021/12/31 00:29:39;;;;;;;2.35;0.60;;;13.70;99.90;;;;;;1968674;72;21067;-75
2021/12/31 00:32:05;;;;;;;1.80;0.55;;;13.70;99.90;;;;;;1966606;72;21127;-74
2021/12/31 00:34:32;;;;;;;0.50;0.50;;;13.60;99.90;;;;;;1969956;72;21023;-75
2021/12/31 00:36:58;;;;;;;1.10;0.70;;;13.60;99.90;;;;;;1974603;72;21066;-75
2021/12/31 00:39:24;;;;;;;0.60;0.60;;;13.60;99.90;;;;;;1968590;72;21151;-75
2021/12/31 00:41:50;;;;;;;2.17;0.80;;;13.60;99.90;;;;;;1965522;72;21150;-75
2021/12/31 00:44:16;;;;;;;1.25;0.85;;;13.60;99.90;;;;;;1967868;71;21118;-74
2021/12/31 00:46:42;;;;;;;2.15;0.75;;;13.60;99.90;;;;;;1965907;72;21201;-73
2021/12/31 00:49:09;;;;;;;0.70;0.70;;;13.50;99.90;;;;;;1966434;71;21079;-74
2021/12/31 00:51:35;;;;;;;1.07;0.72;;;13.50;99.90;;;;;;1976467;72;21067;-74
2021/12/31 00:54:01;;;;;;;4.67;0.78;;;13.50;99.90;;;;;;1965243;72;21117;-75
2021/12/31 00:56:27;;;;;;;1.57;0.68;;;13.40;99.90;;;;;;1976038;71;21189;-74
2021/12/31 00:58:53;;;;;;;1.85;0.80;;;13.30;99.90;;;;;;1976636;72;21067;-75
2021/12/31 01:01:21;;;;;;;1.05;0.60;;;13.30;99.90;;;;;;1978811;72;21063;-74
2021/12/31 01:03:47;;;;;;;0.60;0.50;;;13.20;99.90;;;;;;1970922;71;21454;-74
2021/12/31 01:06:13;;;;;;;1.45;1.17;;;13.10;99.90;;;;;;1968518;72;21529;-75
2021/12/31 01:08:39;;;;;;;0.72;0.72;;;13.10;99.90;;;;;;1971285;72;21565;-75
2021/12/31 01:11:05;;;;;;;1.25;0.90;;;13.00;99.90;;;;;;1972015;72;21131;-74
2021/12/31 01:13:37;;;;;;;0.70;0.70;;;13.10;99.90;;;;;;1971147;71;21030;-74
2021/12/31 01:16:01;;;;;;;2.00;0.90;;;13.00;99.90;;;;;;1974587;71;21135;-75
2021/12/31 01:19:45;;;;;;;2.12;0.80;;;12.90;99.90;;;;;;1974969;71;21480;-75
2021/12/31 01:20:55;;;;;;;0.70;0.70;;;12.80;99.90;;;;;;1964288;72;21098;-75
2021/12/31 01:23:21;;;;;;;1.67;1.02;;;12.80;99.90;;;;;;1964942;72;21142;-74
2021/12/31 01:25:47;;;;;;;1.20;0.72;;;12.80;99.90;;;;;;1963920;71;21026;-74
2021/12/31 01:28:14;;;;;;;1.72;1.00;;;12.80;99.90;;;;;;1966258;72;21071;-75
2021/12/31 01:30:40;;;;;;;1.17;0.90;;;12.70;99.90;;;;;;1969699;71;21136;-74
2021/12/31 01:33:06;;;;;;;0.90;0.80;;;12.70;99.90;;;;;;1968936;72;21069;-74
2021/12/31 01:35:32;;;;;;;3.33;0.90;;;12.60;99.90;;;;;;1968950;72;21141;-74
2021/12/31 01:37:58;;;;;;;1.22;1.07;;;12.50;99.90;;;;;;1974786;72;21122;-74
2021/12/31 01:40:24;;;;;;;1.47;0.80;;;12.50;99.90;;;;;;1970834;72;21602;-76
2021/12/31 01:42:52;;;;;;;1.42;0.95;;;12.50;99.90;;;;;;1958083;72;21477;-74
2021/12/31 01:45:20;;;;;;;0.62;0.60;;;12.30;99.90;;;;;;1962200;72;21060;-74
2021/12/31 01:50:23;;;;;;;2.72;0.72;;;12.10;99.90;;;;;;1978522;72;21562;-74
2021/12/31 01:52:49;;;;;;;1.57;0.90;;;12.10;99.90;;;;;;1965335;72;21058;-74
2021/12/31 01:55:15;;;;;;;2.42;0.82;;;12.10;99.90;;;;;;1970353;72;21067;-74
2021/12/31 01:57:41;;;;;;;0.95;0.90;;;12.00;99.90;;;;;;1957244;72;21152;-74
2021/12/31 02:00:07;;;;;;;0.80;0.80;;;12.00;99.90;;;;;;1962300;72;21063;-75
2021/12/31 02:02:33;;;;;;;1.60;1.10;;;11.90;99.90;;;;;;1963462;71;22672;-74
2021/12/31 02:04:59;;;;;;;1.95;0.80;;;11.90;99.90;;;;;;1972692;72;21118;-74
2021/12/31 02:07:26;;;;;;;2.95;1.10;;;11.80;99.90;;;;;;1972951;72;21148;-75
2021/12/31 02:09:54;;;;;;;1.42;1.20;;;11.90;99.90;;;;;;1967601;71;21143;-74
2021/12/31 02:12:19;;;;;;;2.02;0.80;;;11.80;99.90;;;;;;1967819;71;21165;-75
2021/12/31 02:14:46;;;;;;;8.65;1.25;;;11.80;99.90;;;;;;1965200;72;21070;-75
2021/12/31 02:17:12;;;;;;;7.83;1.30;;;11.70;99.90;;;;;;1967258;72;21067;-74
2021/12/31 02:19:38;;;;;;;0.62;0.62;;;11.50;99.90;;;;;;1978623;71;21036;-75
2021/12/31 02:22:04;;;;;;;1.60;0.98;;;11.50;99.90;;;;;;1971199;72;21036;-74
2021/12/31 02:24:31;;;;;;;4.12;0.82;;;11.30;99.90;;;;;;1963768;72;21065;-73
2021/12/31 02:26:58;;;;;;;0.75;0.75;;;11.30;99.90;;;;;;1969350;72;21071;-75
2021/12/31 02:29:25;;;;;;;2.90;0.80;;;11.20;99.90;;;;;;1970408;71;21062;-75
2021/12/31 02:31:51;;;;;;;2.50;1.10;;;11.10;99.90;;;;;;1956450;72;21070;-75
2021/12/31 02:34:17;;;;;;;2.40;0.93;;;10.90;99.90;;;;;;1959817;71;21031;-75
2021/12/31 02:36:44;;;;;;;0.95;0.70;;;10.80;99.90;;;;;;1965617;72;21196;-75
2021/12/31 02:39:10;;;;;;;3.80;1.22;;;10.80;99.90;;;;;;1975794;71;21200;-75
2021/12/31 02:41:36;;;;;;;4.33;1.00;;;10.90;99.90;;;;;;1974504;72;21161;-75
2021/12/31 02:44:02;;;;;;;1.37;0.80;;;11.00;99.90;;;;;;1971987;72;21481;-74
2021/12/31 02:46:28;;;;;;;2.35;0.82;;;11.00;99.90;;;;;;1967842;72;21495;-75
2021/12/31 02:48:58;;;;;;;1.10;0.70;;;11.00;99.90;;;;;;1975305;72;21592;-74
2021/12/31 02:51:24;;;;;;;2.55;1.00;;;10.80;99.90;;;;;;1972041;72;21078;-75
2021/12/31 02:53:50;;;;;;;0.72;0.72;;;10.80;99.90;;;;;;1968813;72;21156;-75
2021/12/31 02:56:17;;;;;;;1.67;0.90;;;10.70;99.90;;;;;;1973930;72;21487;-75
2021/12/31 02:58:43;;;;;;;1.32;0.93;;;10.70;99.90;;;;;;1970349;72;21137;-75
2021/12/31 03:01:09;;;;;;;2.02;1.07;;;10.70;99.90;;;;;;1973807;72;21038;-74
2021/12/31 03:03:35;;;;;;;4.50;1.20;;;10.70;99.90;;;;;;1970123;72;21062;-75
2021/12/31 03:06:01;;;;;;;1.57;0.98;;;10.60;99.90;;;;;;1970237;72;21224;-75
2021/12/31 03:08:27;;;;;;;1.47;0.80;;;10.60;99.90;;;;;;1971213;72;21072;-73
2021/12/31 03:10:53;;;;;;;3.12;0.80;;;10.60;99.90;;;;;;1966118;71;21164;-74
2021/12/31 03:13:20;;;;;;;1.77;0.90;;;10.50;99.90;;;;;;1968247;71;21577;-75
2021/12/31 03:15:46;;;;;;;1.10;1.00;;;10.50;99.90;;;;;;1974000;71;21480;-76
2021/12/31 03:18:12;;;;;;;2.45;0.85;;;10.40;99.90;;;;;;1969456;71;21483;-75
2021/12/31 03:20:41;;;;;;;2.55;1.02;;;10.40;99.90;;;;;;1975284;71;21061;-76
2021/12/31 03:23:06;;;;;;;3.22;1.22;;;10.30;99.90;;;;;;1972350;72;21175;-75
2021/12/31 03:25:32;;;;;;;2.60;0.78;;;10.30;99.90;;;;;;1964760;72;21061;-75
2021/12/31 03:27:58;;;;;;;1.42;1.25;;;10.30;99.90;;;;;;1971016;71;21079;-75
2021/12/31 03:30:24;;;;;;;3.27;0.72;;;10.20;99.90;;;;;;1975916;72;21032;-74
2021/12/31 03:32:50;;;;;;;1.67;0.88;;;10.20;99.90;;;;;;1970926;71;21487;-74
2021/12/31 03:35:16;;;;;;;1.92;0.90;;;10.10;99.90;;;;;;1964967;72;21115;-75
2021/12/31 03:37:42;;;;;;;0.82;0.80;;;10.10;99.90;;;;;;1961563;72;21522;-74
2021/12/31 03:40:09;;;;;;;1.35;1.20;;;10.00;99.90;;;;;;1972494;72;21444;-75
2021/12/31 03:42:35;;;;;;;1.35;0.95;;;9.80;99.90;;;;;;1962352;72;21473;-75
2021/12/31 03:45:01;;;;;;;2.67;1.02;;;9.80;99.90;;;;;;1968467;72;21063;-74
2021/12/31 03:47:27;;;;;;;1.87;0.90;;;9.80;99.90;;;;;;1969698;71;21061;-74
2021/12/31 03:49:53;;;;;;;1.07;1.00;;;9.60;99.90;;;;;;1970391;72;21160;-75
2021/12/31 03:52:19;;;;;;;1.98;1.05;;;9.60;99.90;;;;;;1964249;71;21062;-75
2021/12/31 03:54:45;;;;;;;1.50;1.00;;;9.50;99.90;;;;;;1969026;72;21061;-75
2021/12/31 03:57:11;;;;;;;2.95;0.98;;;9.60;99.90;;;;;;1962320;72;21087;-75
2021/12/31 03:59:38;;;;;;;3.02;0.95;;;9.40;99.90;;;;;;1973362;72;21075;-75
2021/12/31 04:02:04;;;;;;;2.98;1.30;;;9.40;99.90;;;;;;1970548;71;21109;-74
2021/12/31 04:04:30;;;;;;;1.10;0.90;;;9.20;99.90;;;;;;1965038;72;21550;-74
2021/12/31 04:06:56;;;;;;;2.00;1.20;;;9.20;99.90;;;;;;1966105;71;21063;-74
2021/12/31 04:09:22;;;;;;;3.55;1.20;;;9.00;99.90;;;;;;1965970;71;21066;-75
2021/12/31 04:11:48;;;;;;;2.67;1.20;;;9.00;99.90;;;;;;1978099;72;21243;-74
2021/12/31 04:14:14;;;;;;;6.00;1.30;;;9.00;99.90;;;;;;1971768;72;21117;-74
2021/12/31 04:16:41;;;;;;;2.58;0.90;;;8.90;99.90;;;;;;1975730;71;21120;-74
2021/12/31 04:19:07;;;;;;;2.10;1.00;;;8.70;99.90;;;;;;1965129;72;21057;-75
2021/12/31 04:21:34;;;;;;;2.10;0.80;;;8.80;99.90;;;;;;1962379;71;21111;-75
2021/12/31 04:24:16;;;;;;;3.62;1.50;;;8.80;99.90;;;;;;1968886;72;21069;-75
2021/12/31 04:26:36;;;;;;;5.62;1.17;;;8.70;99.90;;;;;;1973758;72;21075;-74
2021/12/31 04:29:02;;;;;;;2.85;1.35;;;8.50;99.90;;;;;;1968857;71;21144;-74
2021/12/31 04:31:29;;;;;;;2.75;1.30;;;8.60;99.90;;;;;;1963946;71;21061;-74
2021/12/31 04:33:55;;;;;;;1.10;1.10;;;8.50;99.90;;;;;;1976377;71;21075;-74
2021/12/31 04:36:21;;;;;;;1.75;1.07;;;8.50;99.90;;;;;;1971175;71;21136;-74
2021/12/31 04:38:47;;;;;;;8.05;1.25;;;8.40;99.90;;;;;;1975379;71;21040;-74
2021/12/31 04:41:13;;;;;;;2.77;1.10;;;8.20;99.90;;;;;;1975907;72;21061;-75
2021/12/31 04:43:39;;;;;;;1.40;1.15;;;8.30;99.90;;;;;;1975050;72;21274;-75
2021/12/31 04:46:05;;;;;;;3.08;1.15;;;8.30;99.90;;;;;;1975703;72;21140;-74
2021/12/31 04:48:32;;;;;;;1.65;1.25;;;8.20;99.90;;;;;;1976154;71;21062;-74
2021/12/31 04:50:58;;;;;;;1.35;1.25;;;8.20;99.90;;;;;;1970977;72;21068;-75
2021/12/31 04:53:24;;;;;;;1.32;1.00;;;8.10;99.90;;;;;;1965429;72;21023;-75
2021/12/31 04:55:50;;;;;;;1.67;1.15;;;8.20;99.90;;;;;;1964555;72;21186;-75
2021/12/31 04:58:16;;;;;;;1.52;1.42;;;8.00;99.90;;;;;;1969612;72;21487;-75
2021/12/31 05:00:43;;;;;;;1.67;1.20;;;8.00;99.90;;;;;;1973385;72;21503;-75
2021/12/31 05:03:09;;;;;;;5.12;1.40;;;8.10;99.90;;;;;;1973663;72;21540;-75
2021/12/31 05:05:35;;;;;;;3.27;1.27;;;7.90;99.90;;;;;;1966293;72;21062;-75
2021/12/31 05:08:01;;;;;;;2.70;1.50;;;8.00;99.90;;;;;;1973081;72;21186;-74
2021/12/31 05:10:31;;;;;;;1.52;1.30;;;7.90;99.90;;;;;;1970552;72;21039;-74
2021/12/31 05:12:56;;;;;;;4.87;1.37;;;7.80;99.90;;;;;;1975964;72;21483;-75
2021/12/31 05:15:26;;;;;;;2.80;1.20;;;7.80;99.90;;;;;;1970332;72;21096;-75
2021/12/31 05:17:50;;;;;;;1.50;1.40;;;7.80;99.90;;;;;;1963064;71;21099;-74
2021/12/31 05:20:16;;;;;;;1.72;1.35;;;7.70;99.90;;;;;;1970733;72;21117;-74
2021/12/31 05:22:42;;;;;;;1.65;1.10;;;7.80;99.90;;;;;;1976667;72;21070;-74
2021/12/31 05:25:08;;;;;;;1.47;1.10;;;7.90;99.90;;;;;;1965705;71;21057;-74
2021/12/31 05:27:34;;;;;;;3.22;1.47;;;7.80;99.90;;;;;;1976307;72;21091;-75
2021/12/31 05:30:00;;;;;;;5.92;1.57;;;7.80;99.90;;;;;;1969063;72;21180;-75
2021/12/31 05:32:26;;;;;;;1.30;1.20;;;7.70;99.90;;;;;;1962255;71;21098;-74
2021/12/31 05:34:53;;;;;;;2.77;1.40;;;7.60;99.90;;;;;;1970621;72;21121;-75
2021/12/31 05:37:19;;;;;;;2.70;1.60;;;7.60;99.90;;;;;;1974250;72;21075;-74
2021/12/31 05:39:45;;;;;;;1.60;1.30;;;7.60;99.90;;;;;;1966864;72;21067;-74
2021/12/31 05:42:11;;;;;;;4.67;1.37;;;7.50;99.90;;;;;;1974283;72;21037;-75
2021/12/31 05:44:37;;;;;;;2.98;1.55;;;7.40;99.90;;;;;;1974522;72;21106;-74
2021/12/31 05:47:03;;;;;;;2.65;1.10;;;7.40;99.90;;;;;;1972797;71;21062;-75
2021/12/31 05:49:29;;;;;;;2.30;1.27;;;7.40;99.90;;;;;;1964185;71;21139;-75
2021/12/31 05:51:55;;;;;;;1.55;1.12;;;7.40;99.90;;;;;;1967168;72;21179;-75
2021/12/31 05:54:22;;;;;;;4.15;1.40;;;7.20;99.90;;;;;;1968227;71;21071;-75
2021/12/31 05:56:48;;;;;;;1.82;1.45;;;7.30;99.90;;;;;;1973721;72;21116;-75
2021/12/31 05:59:14;;;;;;;2.50;1.40;;;7.30;99.90;;;;;;1965940;71;21034;-74
2021/12/31 06:01:40;;;;;;;4.00;1.82;;;7.30;99.90;;;;;;1962059;72;21059;-75
2021/12/31 06:04:06;;;;;;;1.92;1.50;;;7.30;99.90;;;;;;1973363;72;21132;-75
2021/12/31 06:06:32;;;;;;;2.60;1.75;;;7.20;99.90;;;;;;1974394;72;21071;-74
2021/12/31 06:08:58;;;;;;;4.78;1.70;;;7.10;99.90;;;;;;1974031;71;21145;-75
2021/12/31 06:11:24;;;;;;;2.95;1.80;;;7.10;99.90;;;;;;1972877;72;21536;-75
2021/12/31 06:14:00;;;;;;;3.45;1.77;;;7.00;99.90;;;;;;1968835;71;21399;-74
2021/12/31 06:16:18;;;;;;;2.50;1.47;;;7.00;99.90;;;;;;1967544;71;21150;-75
2021/12/31 06:18:44;;;;;;;2.52;2.12;;;6.90;99.90;;;;;;1968288;72;21111;-75
2021/12/31 06:21:11;;;;;;;3.52;2.05;;;7.10;99.90;;;;;;1973109;72;21175;-75
2021/12/31 06:23:37;;;;;;;5.28;2.65;;;7.10;99.90;;;;;;1974185;71;22613;-75
2021/12/31 06:26:03;;;;;;;3.02;2.15;;;7.10;99.90;;;;;;1969059;71;21663;-75
2021/12/31 06:28:29;;;;;;;3.30;2.40;;;7.10;99.90;;;;;;1970318;72;21494;-75
2021/12/31 06:30:55;;;;;;;2.87;1.90;;;7.10;99.90;;;;;;1973346;72;21463;-75
2021/12/31 06:33:21;;;;;;;7.62;3.00;;;7.00;99.90;;;;;;1965852;71;21062;-75
2021/12/31 06:35:47;;;;;;;4.08;2.45;;;7.00;99.90;;;;;;1975564;72;21129;-76
2021/12/31 06:38:14;;;;;;;3.50;2.30;;;6.90;99.90;;;;;;1969980;72;21148;-75
2021/12/31 06:40:40;;;;;;;7.03;2.35;;;6.90;99.90;;;;;;1970348;72;21116;-75
2021/12/31 06:43:06;;;;;;;6.40;2.08;;;7.00;99.90;;;;;;1967999;72;21078;-75
2021/12/31 06:45:32;;;;;;;2.65;1.70;;;7.00;99.90;;;;;;1970440;72;21032;-75
2021/12/31 06:47:58;;;;;;;2.27;2.08;;;6.90;99.90;;;;;;1967313;72;21073;-76
2021/12/31 06:50:24;;;;;;;3.25;2.27;;;6.90;99.90;;;;;;1965521;71;21157;-75
2021/12/31 06:52:50;;;;;;;4.83;2.58;;;6.80;99.90;;;;;;1968280;72;21465;-74
2021/12/31 06:55:16;;;;;;;8.80;2.75;;;6.90;99.90;;;;;;1967621;72;21493;-75
2021/12/31 06:57:42;;;;;;;12.40;3.25;;;6.80;99.90;;;;;;1967692;72;21532;-75
2021/12/31 07:00:09;;;;;;;6.92;2.95;;;6.80;99.90;;;;;;1964834;71;21058;-75
2021/12/31 07:02:35;;;;;;;5.62;2.80;;;6.80;99.90;;;;;;1962221;72;21145;-75
2021/12/31 07:05:01;;;;;;;6.40;2.62;;;6.80;99.90;;;;;;1966318;71;21112;-75
2021/12/31 07:07:27;;;;;;;5.37;2.65;;;6.80;99.90;;;;;;1970394;72;21067;-75
2021/12/31 07:09:54;;;;;;;3.60;2.75;;;6.70;99.90;;;;;;1975366;72;21075;-74
2021/12/31 07:12:20;;;;;;;3.20;2.67;;;6.70;99.90;;;;;;1973915;72;21203;-75
2021/12/31 07:14:46;;;;;;;2.95;2.55;;;6.70;99.90;;;;;;1966643;71;21099;-74
2021/12/31 07:17:12;;;;;;;3.77;2.55;;;6.60;99.90;;;;;;1973921;72;21475;-76
2021/12/31 07:19:38;;;;;;;2.15;1.90;;;6.60;99.90;;;;;;1968067;71;21467;-73
2021/12/31 07:22:04;;;;;;;6.05;2.70;;;6.50;99.90;;;;;;1966080;72;21473;-75
2021/12/31 07:24:30;;;;;;;10.28;4.83;;;6.60;99.90;;;;;;1961826;71;21121;-75
2021/12/31 07:26:56;;;;;;;5.10;2.83;;;6.70;99.90;;;;;;1971678;71;21036;-75
2021/12/31 07:29:23;;;;;;;4.45;2.98;;;6.50;99.90;;;;;;1965314;72;21311;-75
2021/12/31 07:31:49;;;;;;;6.37;4.33;;;6.50;99.90;;;;;;1969862;71;21036;-74
2021/12/31 07:34:15;;;;;;;5.70;4.45;;;6.60;99.90;;;;;;1975615;72;21125;-75
2021/12/31 07:36:41;;;;;;;6.53;3.42;;;6.60;99.90;;;;;;1971351;72;21128;-75
2021/12/31 07:39:09;;;;;;;8.23;3.40;;;6.60;99.90;;;;;;1970300;71;21123;-74
2021/12/31 07:41:35;;;;;;;6.20;3.50;;;6.60;99.90;;;;;;1969672;72;21075;-75
2021/12/31 07:44:01;;;;;;;5.58;3.17;;;6.60;99.90;;;;;;1959449;71;21555;-74
2021/12/31 07:46:28;;;;;;;6.58;3.80;;;6.50;99.90;;;;;;1970527;71;21479;-74
2021/12/31 07:48:54;;;;;;;4.62;3.17;;;6.60;99.90;;;;;;1969960;72;21077;-75
2021/12/31 07:51:20;;;;;;;5.55;3.00;;;6.60;99.90;;;;;;1962098;71;21139;-74
2021/12/31 07:53:46;;;;;;;4.45;3.30;;;6.60;99.90;;;;;;1968179;71;21139;-75
2021/12/31 07:56:14;;;;;;;4.22;3.83;;;6.60;99.90;;;;;;1968437;72;21023;-76
2021/12/31 07:58:40;;;;;;;4.33;3.60;;;6.60;99.90;;;;;;1967372;72;21034;-76
2021/12/31 08:01:06;;;;;;;5.25;3.60;;;6.60;99.90;;;;;;1969394;72;21065;-75
2021/12/31 08:03:35;;;;;;;6.65;4.40;;;6.60;99.90;;;;;;1972073;71;21071;-75
2021/12/31 08:06:01;;;;;;;4.00;3.50;;;6.70;99.90;;;;;;1969174;72;21061;-76
2021/12/31 08:08:27;;;;;;;5.53;3.95;;;6.70;99.90;;;;;;1962002;71;21070;-76
2021/12/31 08:10:53;;;;;;;6.58;4.53;;;6.70;99.90;;;;;;1971178;72;21265;-74
2021/12/31 08:13:19;;;;;;;8.55;4.47;;;6.70;99.90;;;;;;1971793;72;21065;-75
2021/12/31 08:15:46;;;;;;;4.72;4.20;;;6.80;99.90;;;;;;1970152;71;21063;-75
2021/12/31 08:18:12;;;;;;;7.22;4.33;;;6.80;99.90;;;;;;1969704;72;21124;-75
2021/12/31 08:20:38;;;;;;;6.42;4.40;;;6.90;99.90;;;;;;1977247;72;21031;-74
2021/12/31 08:23:04;;;;;;;7.37;4.80;;;6.90;99.90;;;;;;1968083;71;21115;-76
2021/12/31 08:25:30;;;;;;;4.03;3.67;;;7.00;99.90;;;;;;1965344;71;21214;-76
2021/12/31 08:27:56;;;;;;;5.83;3.90;;;7.00;99.90;;;;;;1969964;71;21065;-75
2021/12/31 08:30:22;;;;;;;4.62;3.75;;;7.10;99.90;;;;;;1964527;71;21063;-76
2021/12/31 08:32:48;;;;;;;6.28;3.98;;;7.20;99.90;;;;;;1972911;72;21511;-76
2021/12/31 08:35:14;;;;;;;5.70;4.20;;;7.30;99.90;;;;;;1966939;71;21415;-76
2021/12/31 08:37:41;;;;;;;5.28;3.95;;;7.30;99.90;;;;;;1962836;72;21490;-74
2021/12/31 08:40:07;;;;;;;6.05;3.90;;;7.40;99.90;;;;;;1974323;71;21524;-77
2021/12/31 08:42:33;;;;;;;4.37;3.58;;;7.50;99.90;;;;;;1967350;72;21053;-77
2021/12/31 08:44:59;;;;;;;3.62;3.33;;;7.60;99.90;;;;;;1974350;71;21069;-76
2021/12/31 08:47:25;;;;;;;6.05;4.15;;;7.70;99.90;;;;;;1962808;72;21134;-76
2021/12/31 08:49:51;;;;;;;5.12;4.28;;;7.80;99.90;;;;;;1966699;72;21027;-75
2021/12/31 08:52:17;;;;;;;4.65;4.15;;;7.80;99.90;;;;;;1971539;72;21071;-76
2021/12/31 08:54:43;;;;;;;4.50;3.92;;;8.00;99.90;;;;;;1964205;71;21123;-75
2021/12/31 08:57:10;;;;;;;6.90;3.40;;;8.10;99.90;;;;;;1965607;72;21126;-76
2021/12/31 08:59:36;;;;;;;8.90;4.25;;;8.30;99.90;;;;;;1970311;72;21106;-75
2021/12/31 09:02:02;;;;;;;5.92;4.65;;;8.40;99.90;;;;;;1972650;72;21040;-77
2021/12/31 09:04:28;;;;;;;6.15;3.60;;;8.60;99.90;;;;;;1976423;72;21132;-76
2021/12/31 09:06:54;;;;;;;7.80;3.98;;;8.80;99.90;;;;;;1968332;72;21066;-76
2021/12/31 09:09:20;;;;;;;4.45;3.20;;;9.00;99.90;;;;;;1974363;72;21066;-76
2021/12/31 09:11:46;;;;;;;4.90;3.00;;;9.20;99.90;;;;;;1975675;72;21082;-76
2021/12/31 09:14:12;;;;;;;4.62;3.02;;;9.30;99.90;;;;;;1968260;71;21481;-75
2021/12/31 09:16:39;;;;;;;3.37;2.42;;;9.30;99.90;;;;;;1972657;71;21593;-78
2021/12/31 09:19:05;;;;;;;3.33;2.50;;;9.40;99.90;;;;;;1967715;71;21530;-76
2021/12/31 09:21:31;;;;;;;4.60;3.55;;;9.50;99.90;;;;;;1969196;71;21064;-75
2021/12/31 09:23:57;;;;;;;4.65;3.10;;;9.60;99.90;;;;;;1967010;71;21062;-80
2021/12/31 09:26:23;;;;;;;4.50;3.15;;;9.90;99.90;;;;;;1974057;71;21071;-79
2021/12/31 09:28:49;;;;;;;3.67;2.80;;;10.20;99.90;;;;;;1962167;71;21185;-75
2021/12/31 09:31:15;;;;;;;3.10;2.75;;;10.30;99.90;;;;;;1962102;71;21101;-78
2021/12/31 09:33:41;;;;;;;2.90;2.60;;;10.50;99.90;;;;;;1970808;72;21179;-80
2021/12/31 09:36:07;;;;;;;2.42;2.22;;;10.70;99.90;;;;;;1970676;72;21189;-79
2021/12/31 09:38:34;;;;;;;3.80;2.60;;;10.80;99.90;;;;;;1972745;71;21053;-79
2021/12/31 09:41:00;;;;;;;4.75;2.95;;;10.90;99.90;;;;;;1971602;71;21067;-81
2021/12/31 09:43:26;;;;;;;3.15;2.37;;;11.20;99.90;;;;;;1978412;72;21059;-80
2021/12/31 09:45:53;;;;;;;4.15;2.30;;;11.30;99.90;;;;;;1975823;72;21063;-79
2021/12/31 09:48:19;;;;;;;5.15;2.67;;;11.60;99.90;;;;;;1966979;71;22655;-78
2021/12/31 09:50:45;;;;;;;2.95;2.15;;;11.80;99.90;;;;;;1971971;71;21079;-79
2021/12/31 09:53:11;;;;;;;3.25;2.37;;;11.90;99.90;;;;;;1965518;71;21127;-79
2021/12/31 09:55:37;;;;;;;1.90;1.80;;;12.00;99.90;;;;;;1964148;71;21094;-78
2021/12/31 09:58:03;;;;;;;1.90;1.80;;;11.90;99.90;;;;;;1967987;71;21058;-79
2021/12/31 10:00:29;;;;;;;5.10;2.60;;;12.00;99.90;;;;;;1975138;71;21036;-77
2021/12/31 10:02:55;;;;;;;3.17;2.20;;;12.40;99.90;;;;;;1962620;71;21257;-79
2021/12/31 10:05:22;;;;;;;2.58;1.92;;;12.60;99.90;;;;;;1966254;71;21169;-78
2021/12/31 10:07:48;;;;;;;2.52;1.62;;;12.70;99.90;;;;;;1972832;72;21124;-79
2021/12/31 10:10:14;;;;;;;4.50;1.77;;;12.90;99.90;;;;;;1968309;72;21023;-80
2021/12/31 10:12:40;;;;;;;2.33;1.50;;;12.90;99.90;;;;;;1976227;72;21085;-80
2021/12/31 10:15:06;;;;;;;1.60;1.50;;;13.20;99.90;;;;;;1973236;72;21067;-80
2021/12/31 10:17:32;;;;;;;1.42;1.32;;;13.10;99.90;;;;;;1978847;72;21226;-81
2021/12/31 10:19:59;;;;;;;1.85;1.32;;;13.30;99.90;;;;;;1965389;72;21522;-80
2021/12/31 10:22:25;;;;;;;2.87;1.50;;;13.60;99.90;;;;;;1976348;71;21133;-81
2021/12/31 10:24:51;;;;;;;1.65;1.52;;;13.30;99.90;;;;;;1965374;71;21083;-80
2021/12/31 10:27:20;;;;;;;2.42;1.62;;;12.90;99.90;;;;;;1960627;71;21071;-81
2021/12/31 10:29:45;;;;;;;2.85;1.52;;;13.20;99.90;;;;;;1969879;72;21248;-80
2021/12/31 10:32:11;;;;;;;1.98;1.25;;;13.90;99.90;;;;;;1973954;71;21064;-81
2021/12/31 10:34:38;;;;;;;1.98;1.50;;;14.20;99.90;;;;;;1975950;71;21141;-81
2021/12/31 10:37:04;;;;;;;2.17;1.00;;;14.60;99.90;;;;;;1972915;72;21141;-80
2021/12/31 10:39:37;;;;;;;1.15;1.10;;;14.90;99.90;;;;;;1967084;71;21557;-81
2021/12/31 10:41:58;;;;;;;1.20;1.07;;;15.00;99.90;;;;;;1966114;71;21157;-81
2021/12/31 10:44:24;;;;;;;5.58;1.60;;;15.10;99.90;;;;;;1962969;72;21059;-80
2021/12/31 10:46:50;;;;;;;1.65;1.40;;;15.00;99.90;;;;;;1970535;71;21030;-81
2021/12/31 10:49:16;;;;;;;4.80;1.65;;;14.70;99.90;;;;;;1973355;72;21131;-79
2021/12/31 10:51:43;;;;;;;2.27;1.55;;;14.70;99.90;;;;;;1975188;72;21185;-75
2021/12/31 10:54:09;;;;;;;1.65;1.52;;;14.90;99.90;;;;;;1967456;71;21078;-76
2021/12/31 10:56:35;;;;;;;1.55;1.45;;;15.40;99.90;;;;;;1967580;72;21136;-75
2021/12/31 10:59:03;;;;;;;1.25;1.20;;;15.80;99.90;;;;;;1969651;72;21063;-75
2021/12/31 11:01:29;;;;;;;2.15;1.40;;;16.00;99.90;;;;;;1973376;72;21129;-77
2021/12/31 11:03:56;;;;;;;1.75;1.65;;;16.00;99.90;;;;;;1971896;72;21128;-76
2021/12/31 11:06:23;;;;;;;2.60;1.40;;;16.20;99.90;;;;;;1970788;71;21124;-74
2021/12/31 11:08:49;;;;;;;1.95;1.40;;;16.40;99.90;;;;;;1969784;71;21038;-77
2021/12/31 11:11:15;;;;;;;1.67;1.57;;;16.80;99.90;;;;;;1973165;71;21052;-74
2021/12/31 11:13:42;;;;;;;1.70;1.60;;;17.00;99.90;;;;;;1963575;71;21073;-75
2021/12/31 11:16:09;;;;;;;1.98;1.60;;;17.10;99.90;;;;;;1974822;71;21111;-75
2021/12/31 11:18:36;;;;;;;1.40;1.30;;;17.30;99.90;;;;;;1962236;71;21178;-75
2021/12/31 11:21:02;;;;;;;2.02;1.57;;;17.20;99.90;;;;;;1971860;72;21055;-75
2021/12/31 11:23:28;;;;;;;1.50;1.40;;;17.50;99.90;;;;;;1971456;72;21062;-74
2021/12/31 11:25:54;;;;;;;1.82;1.70;;;17.90;99.90;;;;;;1963957;71;21140;-75
2021/12/31 11:28:20;;;;;;;2.75;1.60;;;17.40;99.90;;;;;;1971632;72;21128;-74
2021/12/31 11:30:48;;;;;;;1.42;1.32;;;17.40;99.90;;;;;;1964216;71;21027;-74
2021/12/31 11:33:14;;;;;;;2.45;1.42;;;17.70;99.90;;;;;;1975568;72;21151;-74
2021/12/31 11:35:42;;;;;;;1.65;1.55;;;17.70;99.90;;;;;;1965532;71;21161;-75
2021/12/31 11:38:09;;;;;;;3.47;1.37;;;17.50;99.90;;;;;;1970834;72;21059;-74
2021/12/31 11:40:35;;;;;;;1.57;1.37;;;17.40;99.90;;;;;;1967199;72;21079;-75
2021/12/31 11:43:01;;;;;;;1.52;1.40;;;17.70;99.90;;;;;;1973743;71;21133;-75
2021/12/31 11:45:27;;;;;;;1.65;1.45;;;17.70;99.90;;;;;;1973692;72;21067;-74
2021/12/31 11:47:53;;;;;;;1.27;1.20;;;18.20;99.90;;;;;;1970039;71;21135;-76
2021/12/31 11:50:19;;;;;;;1.70;0.98;;;17.70;99.90;;;;;;1971265;72;21589;-78
2021/12/31 11:52:45;;;;;;;3.90;1.30;;;18.40;99.90;;;;;;1966928;72;21437;-77
2021/12/31 11:55:12;;;;;;;1.27;1.10;;;18.40;99.90;;;;;;1962982;71;21533;-86
2021/12/31 11:57:38;;;;;;;1.40;1.20;;;18.50;99.90;;;;;;1966907;72;21528;-85
2021/12/31 12:00:04;;;;;;;1.15;0.90;;;18.40;99.90;;;;;;1974688;71;21521;-86
2021/12/31 12:02:30;;;;;;;3.40;1.10;;;18.70;99.90;;;;;;1972346;71;21448;-85
2021/12/31 12:04:56;;;;;;;0.70;0.70;;;18.80;99.90;;;;;;1971964;72;21513;-83
2021/12/31 12:07:22;;;;;;;1.52;0.75;;;18.80;99.90;;;;;;1962323;71;21061;-84
2021/12/31 12:09:48;;;;;;;0.75;0.70;;;19.10;99.90;;;;;;1969872;72;21067;-85
2021/12/31 12:12:14;;;;;;;1.00;0.82;;;19.60;99.90;;;;;;1968180;72;21039;-83
2021/12/31 12:14:41;;;;;;;1.30;0.88;;;19.30;99.90;;;;;;1969823;71;21063;-85
2021/12/31 12:17:07;;;;;;;0.98;0.90;;;18.10;99.90;;;;;;1969325;71;21065;-86
2021/12/31 12:19:33;;;;;;;0.60;0.60;;;17.80;99.90;;;;;;1971780;71;21064;-85
2021/12/31 12:21:59;;;;;;;1.05;0.90;;;17.60;99.90;;;;;;1971612;71;21036;-83
2021/12/31 12:24:25;;;;;;;0.80;0.80;;;17.00;99.90;;;;;;1964596;71;21061;-84
2021/12/31 12:26:51;;;;;;;2.10;0.82;;;17.30;99.90;;;;;;1976039;71;21162;-83
2021/12/31 12:29:17;;;;;;;3.45;1.37;;;18.30;99.90;;;;;;1971052;72;21066;-83
2021/12/31 12:31:50;;;;;;;1.02;1.02;;;18.40;99.90;;;;;;1962282;72;21027;-83
2021/12/31 12:34:13;;;;;;;1.15;0.98;;;18.40;99.90;;;;;;1971876;71;21177;-84
2021/12/31 12:36:39;;;;;;;0.90;0.90;;;18.20;99.90;;;;;;1974771;71;21080;-83
2021/12/31 12:39:06;;;;;;;2.65;0.95;;;18.00;99.90;;;;;;1971255;72;21467;-82
2021/12/31 12:41:32;;;;;;;1.45;1.00;;;17.90;99.90;;;;;;1967566;71;21139;-82
2021/12/31 12:43:59;;;;;;;0.88;0.85;;;18.40;99.90;;;;;;1967647;72;21140;-82
2021/12/31 12:46:27;;;;;;;1.95;0.85;;;18.90;99.90;;;;;;1966353;72;21064;-83
2021/12/31 12:48:57;;;;;;;1.15;0.68;;;19.60;99.90;;;;;;1972314;72;21511;-83